メインページ
METAR-TAF:

METAR-TAF

空港 :

ワルシャワ・ショパン空港

ワルシャワ, ポーランド

緯度: 52-10N, 経度: 020-58E, 海抜: 106m

現時点の気象観測

当レポートは36分前の05:00(UTC)に作成
南/南西の風 2kt
気温 -1°C
湿度 80%
気圧 1021 hPa
視程10km以上
1,500メートル以下は雲なし、積乱雲なし

METAR: EPWA 040500Z 20002KT CAVOK M01/M04 Q1021 NOSIG

時間: 07:36 (05:36 UTC)

予報

当レポートは3時間6分前の02:30(UTC)に作成
予報は04日の 03時(UTC)から 05日の 03時(UTC)まで有効
西/南西の風 5kt
視程10km以上
1,500メートル以下は雲なし、積乱雲なし
04日の 09時(UTC)から 04日の 16時(UTC)まで一時的に
高度4000ftの雲は散在している, 塔状積雲.
確率 40% :
04日の 11時(UTC)から 04日の 16時(UTC)まで一時的に
西の風 15kt、最大25ktの突風を伴う
確率 40%
04日の 23時(UTC)から 05日の 03時(UTC)まで
視程: 4000m

TAF: EPWA 040230Z 0403/0503 25005KT CAVOK TEMPO 0409/0416 SCT040TCU PROB40 TEMPO 0411/0416 28015G25KT PROB40 0423/0503 4000 BR

4,000以上の空港の気象観測と天気予報(METAR報とTAF報)

利用可能な観測所は地図上に黄色い丸と赤い丸で示す。

丸の上にカーソルを重ねると観測所名を参照できる。

次にクリックすると気象観測と天気予報を参照できる。

マップの切り替え:黒色「×」印の緑ボタンをクリックして拡大、「-」印の緑ボタンをクリックして縮小、緑色の三角印をクリックして隣りの地図に切り替え


METAR-TAF: